Saint-Pie, Canada
Current Conditions -  °F | °C
As of 4:48 AM on Friday 24 Oct 2014 (Local Time) from CYHU Reporting Station
Light Rain Light Rain  
Wind Chill: 40°   Ceiling: 2700
Heat Index: 45°   Visibility: 9mi
Dew Point: 39°   Wind: 8mph
Humidity: 81%   Direction: 10°N
Pressure: 29.9"   Gusts: NA
Location:  45.5°N, 72.9°W
Report Text: CYHU 240848Z AUTO 01007KT 9SM -RA OVC027 07/04 A2990 RMK SLP124
Loading
Personal Weather Stations






























Interactive Weather Map
Tropical Storm Tracking
New forecast layout! Learn more

10-Day Weather Forecast

Advertisements
Track Severe Weather on mobile